Time;durP1;ratioP1;P1;durP2;ratioP2;P2;SDS_P1;SDS_P2;PMS_P1;PMS_P2;Temp;Humidity;BMP_temperature;BMP_pressure;BME280_temperature;BME280_humidity;BME280_pressure;Samples;Min_cycle;Max_cycle;Signal;HPM_P1;HPM_P2
2023/10/12 00:01:59;;;;;;;9.48;5.32;;;;;;;;;;4809048;29;20595;-42
2023/10/12 00:04:36;;;;;;;13.68;4.95;;;;;;;;;;4808997;29;20274;-42
2023/10/12 00:07:17;;;;;;;16.63;5.35;;;;;;;;;;4808911;29;20208;-42
2023/10/12 00:09:48;;;;;;;12.68;5.25;;;;;;;;;;4808657;29;20212;-42
2023/10/12 00:12:21;;;;;;;14.43;5.07;;;;;;;;;;4808923;29;20220;-43
2023/10/12 00:14:48;;;;;;;15.43;5.25;;;;;;;;;;4808545;29;20694;-42
2023/10/12 00:17:18;;;;;;;12.48;5.22;;;;;;;;;;4808784;29;20209;-43
2023/10/12 00:19:46;;;;;;;10.85;5.05;;;;;;;;;;4809214;29;20196;-43
2023/10/12 00:22:15;;;;;;;13.02;5.57;;;;;;;;;;4808358;29;20213;-43
2023/10/12 00:24:43;;;;;;;10.85;4.75;;;;;;;;;;4807713;29;20217;-43
2023/10/12 00:27:17;;;;;;;9.98;4.65;;;;;;;;;;4808227;29;20224;-42
2023/10/12 00:29:48;;;;;;;12.93;4.88;;;;;;;;;;4808306;29;20205;-43
2023/10/12 00:32:15;;;;;;;10.25;4.55;;;;;;;;;;4837669;29;20212;-43
2023/10/12 00:34:46;;;;;;;14.63;5.25;;;;;;;;;;4808203;29;20236;-43
2023/10/12 00:37:14;;;;;;;16.55;4.90;;;;;;;;;;4808570;29;20204;-42
2023/10/12 00:42:24;;;;;;;16.40;5.45;;;;;;;;;;4808336;29;20212;-43
2023/10/12 00:44:54;;;;;;;13.52;4.75;;;;;;;;;;4837171;29;20280;-43
2023/10/12 00:50:11;;;;;;;13.77;5.28;;;;;;;;;;4808293;29;20201;-42
2023/10/12 00:52:56;;;;;;;11.32;4.82;;;;;;;;;;4808312;29;20529;-43
2023/10/12 00:55:36;;;;;;;12.93;5.38;;;;;;;;;;4835085;29;20262;-43
2023/10/12 00:58:05;;;;;;;10.35;4.85;;;;;;;;;;4835614;29;20227;-43
2023/10/12 01:00:35;;;;;;;10.93;5.15;;;;;;;;;;4807889;29;20219;-43
2023/10/12 01:06:06;;;;;;;10.77;4.30;;;;;;;;;;4837062;29;20682;-43
2023/10/12 01:08:33;;;;;;;8.82;4.57;;;;;;;;;;4807923;29;20217;-43
2023/10/12 01:11:06;;;;;;;13.20;4.90;;;;;;;;;;4821630;29;20239;-43
2023/10/12 01:13:33;;;;;;;10.70;4.25;;;;;;;;;;4836696;29;20224;-43
2023/10/12 01:19:06;;;;;;;13.07;4.60;;;;;;;;;;4841832;29;20669;-42
2023/10/12 01:21:37;;;;;;;13.68;4.50;;;;;;;;;;4813507;29;20209;-42
2023/10/12 01:24:11;;;;;;;11.32;4.75;;;;;;;;;;4836848;29;20271;-43
2023/10/12 01:26:44;;;;;;;8.02;4.18;;;;;;;;;;4807266;29;20220;-43
2023/10/12 01:29:20;;;;;;;10.20;4.63;;;;;;;;;;4807617;29;20285;-42
2023/10/12 01:31:54;;;;;;;10.65;4.93;;;;;;;;;;4836406;29;20702;-42
2023/10/12 01:34:24;;;;;;;10.70;4.43;;;;;;;;;;4836428;29;20233;-42
2023/10/12 01:36:55;;;;;;;10.70;3.78;;;;;;;;;;4807256;29;20197;-42
2023/10/12 01:39:28;;;;;;;9.98;4.20;;;;;;;;;;4807180;29;20698;-43
2023/10/12 01:41:58;;;;;;;16.25;4.95;;;;;;;;;;4807236;29;20291;-43
2023/10/12 01:44:25;;;;;;;9.10;4.50;;;;;;;;;;4820568;29;20220;-43
2023/10/12 01:46:52;;;;;;;10.73;4.75;;;;;;;;;;4806930;29;20209;-42
2023/10/12 01:49:19;;;;;;;8.68;4.45;;;;;;;;;;4807146;29;20224;-43
2023/10/12 01:51:46;;;;;;;12.43;4.45;;;;;;;;;;4806816;29;20240;-42
2023/10/12 01:54:22;;;;;;;11.35;4.13;;;;;;;;;;4807081;29;20240;-43
2023/10/12 01:56:53;;;;;;;13.40;4.47;;;;;;;;;;4806905;29;20723;-43
2023/10/12 01:59:20;;;;;;;9.93;4.65;;;;;;;;;;4834697;29;20683;-43
2023/10/12 02:02:05;;;;;;;13.32;4.68;;;;;;;;;;4836146;29;20213;-43
2023/10/12 02:04:39;;;;;;;11.65;4.78;;;;;;;;;;4806948;29;20231;-42
2023/10/12 02:07:10;;;;;;;8.32;3.67;;;;;;;;;;4836257;29;20233;-43
2023/10/12 02:09:37;;;;;;;7.15;3.83;;;;;;;;;;4807072;29;20620;-43
2023/10/12 02:12:13;;;;;;;7.15;4.20;;;;;;;;;;4835800;29;20675;-42
2023/10/12 02:14:41;;;;;;;9.60;4.88;;;;;;;;;;4806800;29;20217;-42
2023/10/12 02:17:09;;;;;;;10.23;4.72;;;;;;;;;;4835724;29;20552;-43
2023/10/12 02:22:15;;;;;;;7.88;4.00;;;;;;;;;;4806904;29;20217;-42
2023/10/12 02:24:51;;;;;;;7.00;3.92;;;;;;;;;;4835763;29;20212;-43
2023/10/12 02:27:18;;;;;;;8.25;4.10;;;;;;;;;;4835857;29;20220;-42
2023/10/12 02:29:49;;;;;;;14.88;4.57;;;;;;;;;;4806671;29;20220;-42
2023/10/12 02:32:23;;;;;;;11.23;4.32;;;;;;;;;;4806369;29;20671;-43
2023/10/12 02:34:59;;;;;;;7.00;3.72;;;;;;;;;;4806514;29;20225;-42
2023/10/12 02:37:27;;;;;;;13.23;4.18;;;;;;;;;;4819312;29;20228;-42
2023/10/12 02:39:56;;;;;;;7.60;3.92;;;;;;;;;;4824874;29;20219;-43
2023/10/12 02:42:38;;;;;;;6.88;3.70;;;;;;;;;;4824717;29;20211;-43
2023/10/12 02:45:19;;;;;;;10.32;3.92;;;;;;;;;;4824739;29;20208;-42
2023/10/12 02:47:46;;;;;;;9.85;4.25;;;;;;;;;;4838553;29;20240;-43
2023/10/12 02:52:43;;;;;;;9.20;4.05;;;;;;;;;;4842109;29;20208;-42
2023/10/12 02:57:56;;;;;;;6.28;3.55;;;;;;;;;;4842346;29;20192;-42
2023/10/12 03:00:33;;;;;;;8.98;3.53;;;;;;;;;;4827696;29;20219;-43
2023/10/12 03:03:07;;;;;;;6.95;4.05;;;;;;;;;;4827923;29;20211;-42
2023/10/12 03:05:48;;;;;;;12.05;3.85;;;;;;;;;;4827904;29;20614;-43
2023/10/12 03:08:17;;;;;;;8.05;3.65;;;;;;;;;;4840947;29;20215;-43
2023/10/12 03:11:01;;;;;;;8.00;4.10;;;;;;;;;;4827619;29;20582;-43
2023/10/12 03:13:34;;;;;;;13.27;4.07;;;;;;;;;;4842142;29;20286;-42
2023/10/12 03:16:09;;;;;;;8.45;3.90;;;;;;;;;;4841772;29;20277;-42
2023/10/12 03:18:36;;;;;;;12.65;3.85;;;;;;;;;;4827737;29;20302;-43
2023/10/12 03:21:11;;;;;;;11.90;4.60;;;;;;;;;;4827622;29;20215;-42
2023/10/12 03:23:40;;;;;;;10.48;3.90;;;;;;;;;;4841812;29;20215;-42
2023/10/12 03:31:53;;;;;;;12.13;4.32;;;;;;;;;;4827350;29;20196;-43
2023/10/12 03:37:01;;;;;;;8.77;3.58;;;;;;;;;;4827119;29;20551;-42
2023/10/12 03:39:30;;;;;;;9.32;3.88;;;;;;;;;;4831103;29;20207;-43
2023/10/12 03:42:12;;;;;;;7.45;3.67;;;;;;;;;;4837142;29;20213;-43
2023/10/12 03:47:23;;;;;;;8.30;3.53;;;;;;;;;;4825018;29;20208;-44
2023/10/12 03:52:20;;;;;;;8.35;4.10;;;;;;;;;;4825847;29;20220;-43
2023/10/12 03:57:39;;;;;;;16.75;3.75;;;;;;;;;;4826362;29;20350;-43
2023/10/12 04:05:21;;;;;;;7.75;3.30;;;;;;;;;;4827252;29;20727;-42
2023/10/12 04:13:08;;;;;;;14.35;3.90;;;;;;;;;;4825732;29;20636;-43
2023/10/12 04:18:28;;;;;;;9.48;4.18;;;;;;;;;;4835438;29;20250;-42
2023/10/12 04:20:57;;;;;;;5.60;2.97;;;;;;;;;;4829518;29;20314;-44
2023/10/12 04:28:56;;;;;;;8.32;3.70;;;;;;;;;;4826047;29;20231;-43
2023/10/12 04:31:49;;;;;;;7.93;4.35;;;;;;;;;;4825085;29;20228;-43
2023/10/12 04:34:27;;;;;;;9.82;3.83;;;;;;;;;;4827593;29;20232;-43
2023/10/12 04:37:22;;;;;;;6.65;3.28;;;;;;;;;;4829956;29;20231;-42
2023/10/12 04:39:49;;;;;;;7.03;3.60;;;;;;;;;;4826800;29;20220;-43
2023/10/12 04:42:23;;;;;;;11.32;4.28;;;;;;;;;;4823011;29;20239;-45
2023/10/12 04:45:23;;;;;;;10.90;4.00;;;;;;;;;;4823729;29;20235;-44
2023/10/12 04:47:56;;;;;;;8.32;4.00;;;;;;;;;;4823776;29;20240;-43
2023/10/12 04:53:12;;;;;;;8.90;3.80;;;;;;;;;;4822241;29;20232;-42
2023/10/12 04:55:47;;;;;;;6.20;3.63;;;;;;;;;;4823677;29;20268;-43
2023/10/12 04:58:30;;;;;;;7.72;3.78;;;;;;;;;;4824090;29;20685;-42
2023/10/12 05:01:19;;;;;;;9.55;4.15;;;;;;;;;;4824588;29;20235;-44
2023/10/12 05:06:35;;;;;;;13.80;4.00;;;;;;;;;;4825397;29;20259;-42
2023/10/12 05:09:10;;;;;;;10.20;3.90;;;;;;;;;;4824839;29;20240;-44
2023/10/12 05:11:39;;;;;;;7.70;4.22;;;;;;;;;;4823880;29;20227;-43
2023/10/12 05:14:15;;;;;;;8.30;3.80;;;;;;;;;;4825382;29;20648;-44
2023/10/12 05:16:42;;;;;;;8.27;4.22;;;;;;;;;;4824421;29;20215;-45
2023/10/12 05:19:11;;;;;;;8.07;3.78;;;;;;;;;;4823818;29;20232;-43
2023/10/12 05:21:39;;;;;;;8.10;4.38;;;;;;;;;;4824511;29;20268;-43
2023/10/12 05:24:08;;;;;;;7.55;4.68;;;;;;;;;;4825098;29;20208;-42
2023/10/12 05:26:37;;;;;;;9.68;3.20;;;;;;;;;;4824969;29;20276;-44
2023/10/12 05:29:34;;;;;;;7.75;3.85;;;;;;;;;;4824624;29;20216;-43
2023/10/12 05:34:45;;;;;;;8.18;4.05;;;;;;;;;;4839518;29;20220;-42
2023/10/12 05:39:52;;;;;;;9.75;4.00;;;;;;;;;;4825325;29;20208;-43
2023/10/12 05:42:19;;;;;;;9.13;4.03;;;;;;;;;;4825474;29;20232;-43
2023/10/12 05:44:48;;;;;;;5.95;3.47;;;;;;;;;;4825202;29;20580;-42
2023/10/12 05:47:29;;;;;;;10.20;4.03;;;;;;;;;;4825215;29;20208;-42
2023/10/12 05:49:59;;;;;;;9.88;3.90;;;;;;;;;;4825374;29;20212;-42
2023/10/12 05:52:27;;;;;;;8.75;4.18;;;;;;;;;;4825285;29;20238;-43
2023/10/12 05:54:58;;;;;;;6.70;3.85;;;;;;;;;;4824998;29;20232;-42
2023/10/12 05:57:29;;;;;;;9.00;4.07;;;;;;;;;;4824926;29;20240;-42
2023/10/12 06:00:00;;;;;;;10.23;4.00;;;;;;;;;;4825164;29;20647;-42
2023/10/12 06:02:29;;;;;;;12.20;4.68;;;;;;;;;;4825258;29;20589;-43
2023/10/12 06:04:56;;;;;;;8.40;4.00;;;;;;;;;;4824826;29;20303;-43
2023/10/12 06:07:25;;;;;;;6.78;3.80;;;;;;;;;;4825365;29;20220;-42
2023/10/12 06:09:53;;;;;;;14.20;4.25;;;;;;;;;;4824790;29;20216;-43
2023/10/12 06:12:24;;;;;;;6.85;3.97;;;;;;;;;;4824859;29;20572;-42
2023/10/12 06:14:54;;;;;;;7.85;3.80;;;;;;;;;;4824932;29;20212;-42
2023/10/12 06:17:30;;;;;;;8.85;3.90;;;;;;;;;;4838976;29;20208;-42
2023/10/12 06:20:19;;;;;;;6.32;3.83;;;;;;;;;;4824694;29;20277;-43
2023/10/12 06:22:49;;;;;;;9.55;3.97;;;;;;;;;;4824622;29;20275;-42
2023/10/12 06:25:18;;;;;;;8.27;3.88;;;;;;;;;;4824768;29;20692;-42
2023/10/12 06:27:46;;;;;;;10.93;4.07;;;;;;;;;;4824892;29;20208;-43
2023/10/12 06:30:17;;;;;;;10.98;4.40;;;;;;;;;;4824623;29;20210;-43
2023/10/12 06:32:48;;;;;;;8.18;4.35;;;;;;;;;;4824776;29;20216;-42
2023/10/12 06:38:15;;;;;;;10.05;4.35;;;;;;;;;;4824942;29;20208;-43
2023/10/12 06:40:38;;;;;;;10.07;4.30;;;;;;;;;;4824593;29;20212;-42
2023/10/12 06:51:02;;;;;;;6.55;3.67;;;;;;;;;;4824458;29;20229;-43
2023/10/12 06:53:36;;;;;;;7.03;4.18;;;;;;;;;;4824802;29;20226;-42
2023/10/12 06:59:08;;;;;;;14.77;4.63;;;;;;;;;;4824902;29;20557;-42
2023/10/12 07:01:39;;;;;;;7.00;3.97;;;;;;;;;;4824698;29;20212;-43
2023/10/12 07:04:25;;;;;;;6.25;3.58;;;;;;;;;;4824366;29;20208;-42
2023/10/12 07:07:11;;;;;;;9.60;4.35;;;;;;;;;;4824534;29;20222;-42
2023/10/12 07:09:43;;;;;;;9.50;4.43;;;;;;;;;;4824033;29;20207;-43
2023/10/12 07:12:15;;;;;;;8.93;3.83;;;;;;;;;;4824259;29;20240;-42
2023/10/12 07:14:55;;;;;;;10.50;4.28;;;;;;;;;;4824199;29;20231;-42
2023/10/12 07:17:32;;;;;;;9.65;4.18;;;;;;;;;;4824250;29;20212;-42
2023/10/12 07:20:00;;;;;;;8.13;3.78;;;;;;;;;;4824188;29;20658;-43
2023/10/12 07:22:27;;;;;;;7.43;4.15;;;;;;;;;;4824335;29;20235;-43
2023/10/12 07:24:56;;;;;;;7.85;3.72;;;;;;;;;;4824079;29;20209;-43
2023/10/12 07:27:24;;;;;;;8.95;3.72;;;;;;;;;;4824044;29;20601;-42
2023/10/12 07:30:14;;;;;;;8.68;4.05;;;;;;;;;;4824216;29;20219;-43
2023/10/12 07:32:54;;;;;;;10.60;4.20;;;;;;;;;;4823995;29;20220;-43
2023/10/12 07:35:32;;;;;;;7.93;3.90;;;;;;;;;;4826125;29;20232;-43
2023/10/12 07:37:59;;;;;;;7.07;4.22;;;;;;;;;;4827476;29;20212;-42
2023/10/12 07:40:34;;;;;;;6.80;4.22;;;;;;;;;;4827235;29;20216;-42
2023/10/12 07:43:05;;;;;;;9.93;3.65;;;;;;;;;;4827211;29;20277;-43
2023/10/12 07:45:47;;;;;;;10.63;4.43;;;;;;;;;;4827108;29;20223;-43
2023/10/12 07:51:25;;;;;;;6.45;3.85;;;;;;;;;;4843401;29;20271;-42
2023/10/12 07:54:00;;;;;;;11.32;4.20;;;;;;;;;;4843367;29;20295;-43
2023/10/12 07:56:40;;;;;;;10.73;3.78;;;;;;;;;;4843142;29;20259;-42
2023/10/12 07:59:13;;;;;;;10.48;4.15;;;;;;;;;;4843350;29;20208;-42
2023/10/12 08:01:50;;;;;;;10.35;3.97;;;;;;;;;;4843369;29;20214;-42
2023/10/12 08:04:29;;;;;;;9.20;3.95;;;;;;;;;;4843408;29;20202;-42
2023/10/12 08:06:56;;;;;;;8.40;3.97;;;;;;;;;;4843262;29;20215;-42
2023/10/12 08:11:54;;;;;;;6.10;2.95;;;;;;;;;;4843127;29;20212;-42
2023/10/12 08:19:43;;;;;;;9.50;3.70;;;;;;;;;;4842825;29;20665;-42
2023/10/12 08:22:26;;;;;;;8.10;4.38;;;;;;;;;;4842896;29;20208;-43
2023/10/12 08:24:56;;;;;;;13.43;3.78;;;;;;;;;;4843023;29;20316;-43
2023/10/12 08:27:25;;;;;;;8.95;3.90;;;;;;;;;;4831843;29;20216;-43
2023/10/12 08:37:41;;;;;;;6.03;3.63;;;;;;;;;;4826248;29;20230;-43
2023/10/12 08:40:18;;;;;;;6.72;3.63;;;;;;;;;;4826279;29;20215;-43
2023/10/12 08:42:58;;;;;;;7.03;3.95;;;;;;;;;;4825641;29;20241;-42
2023/10/12 08:45:29;;;;;;;10.15;4.07;;;;;;;;;;4825779;29;20243;-42
2023/10/12 08:48:02;;;;;;;7.10;4.50;;;;;;;;;;4825902;29;20212;-43
2023/10/12 08:50:47;;;;;;;9.13;3.92;;;;;;;;;;4839478;29;20246;-42
2023/10/12 08:53:19;;;;;;;8.30;3.65;;;;;;;;;;4825109;29;20204;-43
2023/10/12 08:55:48;;;;;;;9.40;3.85;;;;;;;;;;4826166;29;20244;-43
2023/10/12 08:58:38;;;;;;;8.07;3.88;;;;;;;;;;4826091;29;20215;-42
2023/10/12 09:01:08;;;;;;;8.68;3.78;;;;;;;;;;4839016;29;20239;-42
2023/10/12 09:03:44;;;;;;;6.75;3.30;;;;;;;;;;4825949;29;20543;-42
2023/10/12 09:06:53;;;;;;;6.88;3.83;;;;;;;;;;4826344;29;20200;-43
2023/10/12 09:10:36;;;;;;;7.70;3.67;;;;;;;;;;4825659;29;20216;-42
2023/10/12 09:12:16;;;;;;;12.25;3.80;;;;;;;;;;4828783;29;20212;-42
2023/10/12 09:14:43;;;;;;;10.45;3.22;;;;;;;;;;4825877;29;20265;-43
2023/10/12 09:17:27;;;;;;;9.35;3.40;;;;;;;;;;4826010;29;20315;-43
2023/10/12 09:20:12;;;;;;;11.23;3.55;;;;;;;;;;4825971;29;20200;-42
2023/10/12 09:22:40;;;;;;;7.30;3.65;;;;;;;;;;4825897;29;20243;-43
2023/10/12 09:25:21;;;;;;;8.77;3.53;;;;;;;;;;4825712;29;20212;-43
2023/10/12 09:27:55;;;;;;;5.97;3.25;;;;;;;;;;4825553;29;20294;-42
2023/10/12 09:30:26;;;;;;;10.02;3.72;;;;;;;;;;4825831;29;20196;-43
2023/10/12 09:33:08;;;;;;;6.53;3.47;;;;;;;;;;4825484;29;20730;-43
2023/10/12 09:35:41;;;;;;;6.78;3.70;;;;;;;;;;4825307;29;20219;-43
2023/10/12 09:38:12;;;;;;;8.48;3.30;;;;;;;;;;4825570;29;20196;-43
2023/10/12 09:40:42;;;;;;;7.60;3.67;;;;;;;;;;4825250;29;20276;-43
2023/10/12 09:43:12;;;;;;;7.47;3.30;;;;;;;;;;4839011;29;20216;-42
2023/10/12 09:45:47;;;;;;;10.85;3.75;;;;;;;;;;4825777;29;20286;-42
2023/10/12 09:48:27;;;;;;;7.90;3.40;;;;;;;;;;4825408;29;20206;-43
2023/10/12 09:50:56;;;;;;;6.93;3.70;;;;;;;;;;4825312;29;20212;-43
2023/10/12 09:53:37;;;;;;;12.05;3.50;;;;;;;;;;4825446;29;20265;-43
2023/10/12 09:56:24;;;;;;;7.68;3.03;;;;;;;;;;4825203;29;20702;-43
2023/10/12 09:58:52;;;;;;;10.80;3.60;;;;;;;;;;4825043;29;20208;-43
2023/10/12 10:07:15;;;;;;;11.38;3.28;;;;;;;;;;4841383;29;20211;-43
2023/10/12 10:09:48;;;;;;;8.20;3.50;;;;;;;;;;4840979;29;20196;-42
2023/10/12 10:12:17;;;;;;;6.03;3.17;;;;;;;;;;4841002;29;20249;-43
2023/10/12 10:15:10;;;;;;;15.65;3.80;;;;;;;;;;4840951;29;20203;-43
2023/10/12 10:17:47;;;;;;;7.05;3.17;;;;;;;;;;4836957;29;20231;-42
2023/10/12 10:23:03;;;;;;;7.93;3.30;;;;;;;;;;4840967;29;20196;-42
2023/10/12 10:25:35;;;;;;;8.20;3.40;;;;;;;;;;4840878;29;20234;-43
2023/10/12 10:28:10;;;;;;;8.48;3.53;;;;;;;;;;4840894;29;20214;-42
2023/10/12 10:30:41;;;;;;;11.85;4.05;;;;;;;;;;4841008;29;20203;-43
2023/10/12 10:33:20;;;;;;;8.20;4.00;;;;;;;;;;4840702;29;20581;-43
2023/10/12 10:38:53;;;;;;;12.07;3.60;;;;;;;;;;4840527;29;20207;-42
2023/10/12 10:41:26;;;;;;;7.85;3.22;;;;;;;;;;4828758;29;20669;-43
2023/10/12 10:43:53;;;;;;;12.00;3.97;;;;;;;;;;4824891;29;20208;-43
2023/10/12 10:46:26;;;;;;;10.38;3.28;;;;;;;;;;4824554;29;20239;-44
2023/10/12 10:48:55;;;;;;;12.73;3.70;;;;;;;;;;4824888;29;20223;-42
2023/10/12 10:51:27;;;;;;;10.20;4.32;;;;;;;;;;4824398;29;20253;-42
2023/10/12 10:53:55;;;;;;;8.95;3.95;;;;;;;;;;4824507;29;20589;-42
2023/10/12 10:56:35;;;;;;;11.02;4.00;;;;;;;;;;4824641;29;20646;-42
2023/10/12 10:59:18;;;;;;;10.88;4.43;;;;;;;;;;4824719;29;20212;-43
2023/10/12 11:01:49;;;;;;;12.30;4.55;;;;;;;;;;4824705;29;20219;-42
2023/10/12 11:07:03;;;;;;;9.15;3.90;;;;;;;;;;4824700;29;20328;-43
2023/10/12 11:09:49;;;;;;;10.75;3.97;;;;;;;;;;4825333;29;20204;-43
2023/10/12 11:12:16;;;;;;;11.25;4.05;;;;;;;;;;4827911;29;20222;-42
2023/10/12 11:14:52;;;;;;;15.52;4.00;;;;;;;;;;4827881;29;20215;-43
2023/10/12 11:17:20;;;;;;;10.70;3.88;;;;;;;;;;4827674;29;20594;-43
2023/10/12 11:19:49;;;;;;;11.45;3.90;;;;;;;;;;4827724;29;20216;-42
2023/10/12 11:22:18;;;;;;;7.28;3.75;;;;;;;;;;4827714;29;20212;-43
2023/10/12 11:24:45;;;;;;;10.70;3.20;;;;;;;;;;4826459;29;20610;-43
2023/10/12 11:27:28;;;;;;;6.78;3.00;;;;;;;;;;4827561;29;20216;-43
2023/10/12 11:30:00;;;;;;;8.45;4.00;;;;;;;;;;4827396;29;20640;-42
2023/10/12 11:32:32;;;;;;;8.13;3.65;;;;;;;;;;4826883;29;20208;-43
2023/10/12 11:35:00;;;;;;;9.38;3.75;;;;;;;;;;4821213;29;20285;-43
2023/10/12 11:37:30;;;;;;;8.45;3.67;;;;;;;;;;4824929;29;20244;-44
2023/10/12 11:39:59;;;;;;;9.23;3.88;;;;;;;;;;4834673;29;20228;-43
2023/10/12 11:42:28;;;;;;;11.68;3.40;;;;;;;;;;4841970;29;20245;-44
2023/10/12 11:44:55;;;;;;;8.35;3.33;;;;;;;;;;4834315;29;20232;-43
2023/10/12 11:47:25;;;;;;;15.63;3.35;;;;;;;;;;4849447;29;20741;-42
2023/10/12 11:49:56;;;;;;;8.80;2.97;;;;;;;;;;4835676;29;20223;-44
2023/10/12 11:52:30;;;;;;;8.13;3.25;;;;;;;;;;4835606;29;20315;-43
2023/10/12 11:55:06;;;;;;;7.88;3.22;;;;;;;;;;4839763;29;20222;-43
2023/10/12 11:57:35;;;;;;;12.80;3.58;;;;;;;;;;4844228;29;20251;-43
2023/10/12 12:00:14;;;;;;;9.45;3.72;;;;;;;;;;4844593;29;20287;-35
2023/10/12 12:02:41;;;;;;;11.18;3.15;;;;;;;;;;4844610;29;20231;-33
2023/10/12 12:05:11;;;;;;;11.57;3.45;;;;;;;;;;4844098;29;20256;-36
2023/10/12 12:07:38;;;;;;;9.23;2.95;;;;;;;;;;4844183;29;20241;-33
2023/10/12 12:10:07;;;;;;;11.03;3.60;;;;;;;;;;4843453;29;20449;-35
2023/10/12 12:12:38;;;;;;;9.10;3.45;;;;;;;;;;4843860;29;20322;-36
2023/10/12 12:15:06;;;;;;;7.60;3.45;;;;;;;;;;4843028;29;20291;-34
2023/10/12 12:17:35;;;;;;;11.40;3.17;;;;;;;;;;4827977;29;20240;-34
2023/10/12 12:20:07;;;;;;;8.13;3.05;;;;;;;;;;4826378;29;20208;-33
2023/10/12 12:22:42;;;;;;;9.40;3.88;;;;;;;;;;4825127;29;20212;-33
2023/10/12 12:25:31;;;;;;;6.18;3.72;;;;;;;;;;4825662;29;20708;-33
2023/10/12 12:28:01;;;;;;;11.50;3.73;;;;;;;;;;4827172;29;20463;-34
2023/10/12 12:30:32;;;;;;;11.68;3.72;;;;;;;;;;4824538;29;20528;-39
2023/10/12 12:33:03;;;;;;;13.60;4.20;;;;;;;;;;4823550;29;20933;-36
2023/10/12 12:35:31;;;;;;;10.98;3.65;;;;;;;;;;4824331;29;20495;-36
2023/10/12 12:38:01;;;;;;;9.38;3.90;;;;;;;;;;4822125;29;20872;-36
2023/10/12 12:40:30;;;;;;;10.80;4.40;;;;;;;;;;4823751;29;20475;-36
2023/10/12 12:43:00;;;;;;;13.23;4.47;;;;;;;;;;4805486;29;20523;-36
2023/10/12 12:45:30;;;;;;;13.43;4.75;;;;;;;;;;4805273;29;20460;-37
2023/10/12 12:47:57;;;;;;;13.55;4.53;;;;;;;;;;4807570;29;20456;-37
2023/10/12 12:50:28;;;;;;;16.55;4.97;;;;;;;;;;4806751;29;20448;-35
2023/10/12 12:52:57;;;;;;;10.90;4.15;;;;;;;;;;4807301;29;20467;-39
2023/10/12 12:55:30;;;;;;;7.70;2.83;;;;;;;;;;4806670;29;20457;-36
2023/10/12 12:58:01;;;;;;;10.88;3.50;;;;;;;;;;4823088;29;20208;-39
2023/10/12 13:00:33;;;;;;;8.98;3.53;;;;;;;;;;4829921;29;20442;-36
2023/10/12 13:03:00;;;;;;;5.85;3.00;;;;;;;;;;4822624;29;20471;-36
2023/10/12 13:05:28;;;;;;;8.02;2.90;;;;;;;;;;4824778;29;20483;-35
2023/10/12 13:07:56;;;;;;;7.03;2.95;;;;;;;;;;4823075;29;20545;-37
2023/10/12 13:10:25;;;;;;;6.38;2.53;;;;;;;;;;4823874;29;20455;-39
2023/10/12 13:12:53;;;;;;;6.05;2.75;;;;;;;;;;4823835;29;20454;-35
2023/10/12 13:15:23;;;;;;;6.00;2.55;;;;;;;;;;4823547;29;20461;-37
2023/10/12 13:17:50;;;;;;;7.20;2.60;;;;;;;;;;4823889;29;20469;-42
2023/10/12 13:20:21;;;;;;;8.52;2.15;;;;;;;;;;4824704;29;20208;-38
2023/10/12 13:22:49;;;;;;;7.00;2.30;;;;;;;;;;4823110;29;20193;-38
2023/10/12 13:25:20;;;;;;;6.40;1.88;;;;;;;;;;4824929;29;20262;-35
2023/10/12 13:27:51;;;;;;;6.32;2.70;;;;;;;;;;4824907;29;20200;-33
2023/10/12 13:30:20;;;;;;;8.90;2.40;;;;;;;;;;4824881;29;20565;-37
2023/10/12 13:32:52;;;;;;;7.97;2.35;;;;;;;;;;4824394;29;20212;-36
2023/10/12 13:35:31;;;;;;;7.63;2.83;;;;;;;;;;4824221;29;20201;-37
2023/10/12 13:38:02;;;;;;;10.27;2.70;;;;;;;;;;4824378;29;20212;-33
2023/10/12 14:03:55;;;;;;;8.73;2.80;;;;;;;;;;5175592;22;20238;-37
2023/10/12 14:06:27;;;;;;;6.65;3.08;;;;;;;;;;5045763;28;20211;-36
2023/10/12 14:08:58;;;;;;;13.38;4.80;;;;;;;;;;5047151;28;20206;-37
2023/10/12 14:11:26;;;;;;;7.57;3.33;;;;;;;;;;5049229;28;20203;-37
2023/10/12 14:13:53;;;;;;;5.30;2.80;;;;;;;;;;5046999;28;20661;-36
2023/10/12 14:16:20;;;;;;;5.55;2.88;;;;;;;;;;5049080;28;20200;-37
2023/10/12 14:18:50;;;;;;;7.75;3.38;;;;;;;;;;5049885;28;20293;-36
2023/10/12 14:21:19;;;;;;;8.80;3.70;;;;;;;;;;5046313;28;20197;-38
2023/10/12 14:23:48;;;;;;;7.68;3.95;;;;;;;;;;5043087;28;20313;-38
2023/10/12 14:26:22;;;;;;;4.05;2.30;;;;;;;;;;5044678;28;20576;-37
2023/10/12 14:28:53;;;;;;;10.00;3.42;;;;;;;;;;5047508;28;20757;-40
2023/10/12 14:31:21;;;;;;;6.25;3.47;;;;;;;;;;5045612;28;20232;-38
2023/10/12 14:33:51;;;;;;;6.22;2.30;;;;;;;;;;5029818;28;20574;-39
2023/10/12 14:36:20;;;;;;;6.93;2.17;;;;;;;;;;5047448;28;20232;-39
2023/10/12 14:38:47;;;;;;;5.45;2.17;;;;;;;;;;5047612;28;20337;-39
2023/10/12 14:41:18;;;;;;;3.72;2.05;;;;;;;;;;5047989;28;20228;-38
2023/10/12 14:43:47;;;;;;;3.75;1.98;;;;;;;;;;5029619;28;20232;-39
2023/10/12 14:46:18;;;;;;;3.53;1.45;;;;;;;;;;5045585;28;20243;-38
2023/10/12 14:48:51;;;;;;;3.55;1.65;;;;;;;;;;5047516;28;20225;-40
2023/10/12 14:51:25;;;;;;;4.60;2.00;;;;;;;;;;5045694;28;20230;-41
2023/10/12 14:53:53;;;;;;;7.20;2.45;;;;;;;;;;5042533;28;20225;-38
2023/10/12 14:56:23;;;;;;;4.53;2.35;;;;;;;;;;5034641;28;20224;-39
2023/10/12 14:58:53;;;;;;;6.65;2.38;;;;;;;;;;5034196;28;20216;-39
2023/10/12 15:01:22;;;;;;;11.45;3.10;;;;;;;;;;5034470;28;20216;-38
2023/10/12 15:03:49;;;;;;;4.70;2.47;;;;;;;;;;5013651;28;20770;-38
2023/10/12 15:06:19;;;;;;;9.88;3.25;;;;;;;;;;5034385;28;20237;-39
2023/10/12 15:08:48;;;;;;;6.22;2.65;;;;;;;;;;5031167;28;20609;-38
2023/10/12 15:11:16;;;;;;;3.80;2.28;;;;;;;;;;5034512;28;20217;-39
2023/10/12 15:13:45;;;;;;;3.40;1.67;;;;;;;;;;5034046;28;20236;-40
2023/10/12 15:16:12;;;;;;;2.83;1.58;;;;;;;;;;5032029;28;20230;-38
2023/10/12 15:18:43;;;;;;;4.80;1.80;;;;;;;;;;5033897;28;20307;-38
2023/10/12 15:21:12;;;;;;;3.47;1.75;;;;;;;;;;5031066;28;20228;-39
2023/10/12 15:23:57;;;;;;;4.15;1.55;;;;;;;;;;5031865;28;20221;-39
2023/10/12 15:26:25;;;;;;;3.63;2.20;;;;;;;;;;5033564;28;20220;-39
2023/10/12 15:28:53;;;;;;;6.03;2.80;;;;;;;;;;5033831;28;20601;-39
2023/10/12 15:31:29;;;;;;;11.18;2.85;;;;;;;;;;5033629;28;20719;-40
2023/10/12 15:33:57;;;;;;;5.88;1.80;;;;;;;;;;5030944;28;20551;-39
2023/10/12 15:36:25;;;;;;;8.40;2.17;;;;;;;;;;5033313;28;20228;-39
2023/10/12 15:38:53;;;;;;;3.90;1.60;;;;;;;;;;5033722;28;20232;-39
2023/10/12 15:41:21;;;;;;;3.58;1.75;;;;;;;;;;5034274;28;20235;-39
2023/10/12 15:43:49;;;;;;;4.82;1.67;;;;;;;;;;5033659;28;20567;-39
2023/10/12 15:46:17;;;;;;;2.72;1.23;;;;;;;;;;5033114;28;20266;-37
2023/10/12 15:48:46;;;;;;;3.83;1.42;;;;;;;;;;5032030;28;20236;-39
2023/10/12 15:51:19;;;;;;;3.70;1.70;;;;;;;;;;5029619;28;20217;-39
2023/10/12 15:53:49;;;;;;;4.55;1.40;;;;;;;;;;5034275;28;20228;-40
2023/10/12 15:56:17;;;;;;;4.65;1.80;;;;;;;;;;5016968;28;20231;-39
2023/10/12 15:58:52;;;;;;;6.22;2.53;;;;;;;;;;5033677;28;20263;-39
2023/10/12 16:01:20;;;;;;;7.00;3.22;;;;;;;;;;5034060;28;20350;-39
2023/10/12 16:03:47;;;;;;;13.13;7.65;;;;;;;;;;5033229;28;20232;-39
2023/10/12 16:06:15;;;;;;;163.68;57.95;;;;;;;;;;5032208;28;20216;-38
2023/10/12 16:08:44;;;;;;;292.33;92.75;;;;;;;;;;5016182;28;23325;-39
2023/10/12 16:11:16;;;;;;;322.50;102.28;;;;;;;;;;5033267;28;20231;-39
2023/10/12 16:13:45;;;;;;;327.83;111.82;;;;;;;;;;5021577;28;20914;-41
2023/10/12 16:16:13;;;;;;;156.18;43.80;;;;;;;;;;5045871;28;20221;-40
2023/10/12 16:18:41;;;;;;;28.25;6.85;;;;;;;;;;5033026;28;20338;-40
2023/10/12 16:21:15;;;;;;;27.73;6.85;;;;;;;;;;5033616;28;20303;-38
2023/10/12 16:23:44;;;;;;;14.98;5.03;;;;;;;;;;5021226;28;20225;-39
2023/10/12 16:26:13;;;;;;;20.23;6.90;;;;;;;;;;5024712;28;20300;-39
2023/10/12 16:28:43;;;;;;;22.85;7.15;;;;;;;;;;5028787;28;20220;-40
2023/10/12 16:31:11;;;;;;;14.10;5.72;;;;;;;;;;5032200;28;20239;-39
2023/10/12 16:33:39;;;;;;;33.92;14.38;;;;;;;;;;5028624;28;20600;-38
2023/10/12 16:36:16;;;;;;;38.65;16.27;;;;;;;;;;5029922;28;20216;-39
2023/10/12 16:38:43;;;;;;;40.55;19.35;;;;;;;;;;5031068;28;20208;-39
2023/10/12 16:41:15;;;;;;;57.65;12.15;;;;;;;;;;5031629;28;20227;-39
2023/10/12 16:43:42;;;;;;;11.05;4.30;;;;;;;;;;5030332;28;20232;-39
2023/10/12 16:46:15;;;;;;;17.73;6.25;;;;;;;;;;5032044;28;20221;-39
2023/10/12 16:48:43;;;;;;;11.10;3.78;;;;;;;;;;5031538;28;20271;-39
2023/10/12 16:51:10;;;;;;;16.17;6.40;;;;;;;;;;5031526;28;20224;-39
2023/10/12 16:53:38;;;;;;;12.48;4.60;;;;;;;;;;5023522;28;20704;-38
2023/10/12 16:56:10;;;;;;;10.93;4.00;;;;;;;;;;5024743;28;20213;-36
2023/10/12 16:58:39;;;;;;;7.15;3.58;;;;;;;;;;5029938;28;20573;-43
2023/10/12 17:01:09;;;;;;;15.82;4.82;;;;;;;;;;5031461;28;20601;-38
2023/10/12 17:03:38;;;;;;;8.02;3.83;;;;;;;;;;5029203;28;20771;-44
2023/10/12 17:06:06;;;;;;;12.98;5.13;;;;;;;;;;5031342;28;20220;-46
2023/10/12 17:08:33;;;;;;;9.82;4.45;;;;;;;;;;5029907;28;20228;-48
2023/10/12 17:11:00;;;;;;;5.95;3.30;;;;;;;;;;5031440;28;20225;-45
2023/10/12 17:13:27;;;;;;;5.38;3.00;;;;;;;;;;5031701;28;20254;-45
2023/10/12 17:15:56;;;;;;;7.18;3.60;;;;;;;;;;5029762;28;20220;-47
2023/10/12 17:18:24;;;;;;;4.95;3.28;;;;;;;;;;5031112;28;20231;-47
2023/10/12 17:20:53;;;;;;;7.68;3.60;;;;;;;;;;5013464;28;20232;-44
2023/10/12 17:23:27;;;;;;;8.18;3.63;;;;;;;;;;5031836;28;20644;-48